Terminal Aerodrome Forecast
Issued by NWS Wilmington, OH

Current Version | Previous Version | Graphics & Text | Print | Product List | Glossary On
Versions: 1 2 3 4 5 6 7 8 9 10 11 12 13 14 15 16 17 18 19 20 21 22 23 24 25 26 27 28 29 30 31
000
FTUS41 KILN 271747
TAFCVG
TAF
KCVG 271747Z 2718/2824 20009KT P6SM VCTS SCT040CB SCT200
      TEMPO 2718/2720 30010G20KT 5SM -TSRA BR
     FM272200 29006KT P6SM SCT040 SCT200
     FM280000 VRB03KT P6SM SCT250
     FM280900 34003KT 5SM BR FEW035 SCT150
     FM281300 01004KT P6SM SCT150
     FM281600 02007KT P6SM SCT040 SCT150=

USA.gov is the U.S. government's official web portal to all federal, state and local government web resources and services.